createdAt,value
2023-03-07T00:01:07.605Z,67.52
2023-03-07T00:03:34.562Z,67.41
2023-03-07T00:06:02.299Z,67.07
2023-03-07T00:08:31.329Z,66.34
2023-03-07T00:11:05.020Z,66.76
2023-03-07T00:13:32.567Z,66.64
2023-03-07T00:16:07.825Z,66.18
2023-03-07T00:18:34.709Z,66.13
2023-03-07T00:21:03.470Z,66.88
2023-03-07T00:23:30.004Z,66.84
2023-03-07T00:26:01.476Z,66.07
2023-03-07T00:31:04.400Z,66.81
2023-03-07T00:33:31.404Z,66.68
2023-03-07T00:36:00.585Z,66.94
2023-03-07T00:38:29.418Z,66.93
2023-03-07T00:41:00.427Z,66.58
2023-03-07T00:43:28.051Z,66.02
2023-03-07T00:45:55.672Z,66.20
2023-03-07T00:48:23.476Z,66.60
2023-03-07T00:50:51.025Z,66.46
2023-03-07T00:53:18.335Z,66.06
2023-03-07T00:56:24.145Z,66.08
2023-03-07T00:58:51.646Z,66.45
2023-03-07T01:01:23.534Z,65.67
2023-03-07T01:03:53.873Z,66.39
2023-03-07T01:06:23.304Z,66.45
2023-03-07T01:08:49.921Z,65.67
2023-03-07T01:11:16.788Z,66.32
2023-03-07T01:16:16.944Z,65.88
2023-03-07T01:18:44.847Z,65.16
2023-03-07T01:21:20.880Z,64.63
2023-03-07T01:23:47.715Z,64.39
2023-03-07T01:26:16.400Z,64.38
2023-03-07T01:28:43.333Z,64.49
2023-03-07T01:31:10.325Z,64.31
2023-03-07T01:33:37.423Z,64.76
2023-03-07T01:36:05.425Z,64.75
2023-03-07T01:38:34.221Z,65.22
2023-03-07T01:41:02.535Z,65.32
2023-03-07T01:43:32.375Z,65.16
2023-03-07T01:46:33.405Z,65.08
2023-03-07T01:49:05.223Z,65.64
2023-03-07T01:51:34.797Z,65.83
2023-03-07T01:54:02.468Z,66.15
2023-03-07T01:56:30.411Z,65.70
2023-03-07T01:58:57.542Z,65.58
2023-03-07T02:01:26.033Z,66.29
2023-03-07T02:03:57.590Z,65.57
2023-03-07T02:06:25.227Z,66.09
2023-03-07T02:11:26.893Z,66.20
2023-03-07T02:13:53.547Z,65.92
2023-03-07T02:16:20.673Z,65.64
2023-03-07T02:18:50.139Z,64.75
2023-03-07T02:21:19.226Z,64.11
2023-03-07T02:23:55.748Z,64.28
2023-03-07T02:26:31.460Z,63.97
2023-03-07T02:28:59.615Z,64.44
2023-03-07T02:31:26.841Z,64.15
2023-03-07T02:33:53.524Z,64.01
2023-03-07T02:36:28.190Z,64.16
2023-03-07T02:41:36.269Z,63.86
2023-03-07T02:44:02.907Z,63.81
2023-03-07T02:46:29.536Z,64.97
2023-03-07T02:48:56.170Z,64.68
2023-03-07T02:51:22.877Z,64.13
2023-03-07T02:53:49.451Z,63.91
2023-03-07T02:56:16.066Z,64.70
2023-03-07T02:58:42.621Z,64.06
2023-03-07T03:01:09.215Z,63.98
2023-03-07T03:03:35.945Z,63.61
2023-03-07T03:06:02.599Z,63.18
2023-03-07T03:08:29.135Z,63.90
2023-03-07T03:10:55.880Z,64.14
2023-03-07T03:13:22.822Z,64.76
2023-03-07T03:15:49.521Z,64.98
2023-03-07T03:18:16.102Z,64.20
2023-03-07T03:20:42.795Z,63.79
2023-03-07T03:23:09.384Z,63.72
2023-03-07T03:25:36.094Z,64.44
2023-03-07T03:28:02.684Z,63.53
2023-03-07T03:30:32.451Z,63.94
2023-03-07T03:32:59.101Z,63.85
2023-03-07T03:35:25.809Z,63.53
2023-03-07T03:37:52.385Z,63.85
2023-03-07T03:40:19.055Z,63.59
2023-03-07T03:42:46.055Z,63.98
2023-03-07T03:45:15.075Z,63.80
2023-03-07T03:47:41.968Z,63.60
2023-03-07T03:50:09.677Z,63.93
2023-03-07T03:52:36.741Z,63.46
2023-03-07T03:55:03.981Z,63.27
2023-03-07T03:57:30.567Z,63.49
2023-03-07T03:59:57.679Z,64.36
2023-03-07T04:02:24.998Z,64.51
2023-03-07T04:04:51.670Z,64.35
2023-03-07T04:07:18.241Z,63.43
2023-03-07T04:09:44.832Z,63.66
2023-03-07T04:12:11.597Z,63.83
2023-03-07T04:14:38.145Z,64.45
2023-03-07T04:17:04.737Z,64.87
2023-03-07T04:19:31.284Z,64.47
2023-03-07T04:21:57.829Z,64.69
2023-03-07T04:24:24.388Z,64.28
2023-03-07T04:26:50.947Z,64.19
2023-03-07T04:29:17.528Z,64.29
2023-03-07T04:31:44.189Z,64.41
2023-03-07T04:34:10.850Z,64.09
2023-03-07T04:36:37.707Z,64.69
2023-03-07T04:39:04.374Z,64.00
2023-03-07T04:41:30.954Z,63.81
2023-03-07T04:43:57.623Z,64.07
2023-03-07T04:46:24.195Z,64.26
2023-03-07T04:48:50.734Z,64.01
2023-03-07T04:51:17.317Z,64.71
2023-03-07T04:53:44.163Z,64.92
2023-03-07T04:56:11.165Z,64.43
2023-03-07T04:58:38.202Z,63.93
2023-03-07T05:01:05.729Z,64.92
2023-03-07T05:03:33.538Z,64.84
2023-03-07T05:06:08.690Z,64.48
2023-03-07T05:08:35.660Z,64.75
2023-03-07T05:11:02.341Z,64.40
2023-03-07T05:13:28.959Z,64.62
2023-03-07T05:15:57.565Z,64.67
2023-03-07T05:18:24.334Z,64.90
2023-03-07T05:23:29.109Z,64.87
2023-03-07T05:25:55.770Z,64.03
2023-03-07T05:28:22.341Z,64.28
2023-03-07T05:30:49.651Z,64.33
2023-03-07T05:33:16.273Z,63.68
2023-03-07T05:35:43.107Z,64.44
2023-03-07T05:38:10.031Z,64.45
2023-03-07T05:40:36.633Z,64.02
2023-03-07T05:43:03.814Z,63.63
2023-03-07T05:45:30.432Z,63.44
2023-03-07T05:47:57.002Z,63.16
2023-03-07T05:50:24.033Z,62.97
2023-03-07T05:52:50.668Z,63.48
2023-03-07T05:55:17.248Z,63.16
2023-03-07T05:57:43.790Z,62.99
2023-03-07T06:02:49.544Z,62.59
2023-03-07T06:05:16.283Z,63.25
2023-03-07T06:10:21.387Z,63.26
2023-03-07T06:12:52.087Z,62.40
2023-03-07T06:15:19.330Z,62.18
2023-03-07T06:17:46.048Z,62.35
2023-03-07T06:20:13.297Z,62.44
2023-03-07T06:25:14.050Z,62.00
2023-03-07T06:27:40.679Z,61.84
2023-03-07T06:30:09.025Z,62.09
2023-03-07T06:32:35.862Z,62.34
2023-03-07T06:35:02.472Z,61.59
2023-03-07T06:37:29.122Z,61.25
2023-03-07T06:39:56.067Z,61.67
2023-03-07T06:42:22.686Z,61.30
2023-03-07T06:44:49.321Z,61.29
2023-03-07T06:47:15.910Z,61.28
2023-03-07T06:49:42.434Z,61.37
2023-03-07T06:54:40.305Z,61.16
2023-03-07T06:57:06.885Z,61.45
2023-03-07T06:59:33.838Z,60.83
2023-03-07T07:02:03.443Z,61.58
2023-03-07T07:04:30.388Z,60.70
2023-03-07T07:06:56.997Z,61.05
2023-03-07T07:09:23.680Z,60.66
2023-03-07T07:11:50.239Z,60.23
2023-03-07T07:14:16.990Z,60.64
2023-03-07T07:16:43.635Z,60.84
2023-03-07T07:19:10.347Z,60.42
2023-03-07T07:21:36.969Z,60.66
2023-03-07T07:24:04.943Z,61.22
2023-03-07T07:26:31.534Z,60.83
2023-03-07T07:28:58.119Z,60.28
2023-03-07T07:31:24.827Z,60.34
2023-03-07T07:33:51.448Z,60.61
2023-03-07T07:36:18.026Z,60.17
2023-03-07T07:38:44.911Z,59.95
2023-03-07T07:41:11.579Z,60.16
2023-03-07T07:43:38.225Z,59.27
2023-03-07T07:46:05.383Z,59.93
2023-03-07T07:48:32.305Z,60.11
2023-03-07T07:51:02.862Z,59.78
2023-03-07T07:53:29.800Z,59.68
2023-03-07T07:55:56.866Z,59.75
2023-03-07T07:58:23.561Z,59.33
2023-03-07T08:00:50.172Z,59.21
2023-03-07T08:03:16.787Z,59.29
2023-03-07T08:05:48.647Z,59.03
2023-03-07T08:08:16.773Z,59.24
2023-03-07T08:10:45.650Z,58.79
2023-03-07T08:13:17.577Z,58.58
2023-03-07T08:15:44.220Z,58.61
2023-03-07T08:18:11.185Z,57.91
2023-03-07T08:20:39.033Z,57.56
2023-03-07T08:23:05.697Z,57.91
2023-03-07T08:25:32.397Z,57.74
2023-03-07T08:27:59.221Z,57.69
2023-03-07T08:30:28.467Z,57.53
2023-03-07T08:32:56.242Z,57.41
2023-03-07T08:35:23.959Z,56.57
2023-03-07T08:37:54.940Z,56.79
2023-03-07T08:40:22.146Z,56.98
2023-03-07T08:42:49.121Z,56.78
2023-03-07T08:45:15.948Z,55.99
2023-03-07T08:47:42.777Z,56.46
2023-03-07T08:50:09.927Z,56.48
2023-03-07T08:52:36.510Z,56.77
2023-03-07T08:55:03.532Z,56.10
2023-03-07T08:57:30.226Z,55.86
2023-03-07T08:59:56.829Z,55.29
2023-03-07T09:02:23.377Z,55.27
2023-03-07T09:04:50.078Z,55.71
2023-03-07T09:07:16.700Z,55.28
2023-03-07T09:09:43.238Z,54.17
2023-03-07T09:14:41.274Z,53.21
2023-03-07T09:17:07.876Z,52.79
2023-03-07T09:19:35.349Z,52.13
2023-03-07T09:22:02.080Z,51.55
2023-03-07T09:24:28.689Z,52.90
2023-03-07T09:26:55.308Z,52.54
2023-03-07T09:29:21.954Z,52.36
2023-03-07T09:31:49.035Z,52.05
2023-03-07T09:34:16.069Z,50.80
2023-03-07T09:36:42.658Z,50.52
2023-03-07T09:39:14.415Z,50.75
2023-03-07T09:42:02.603Z,49.26
2023-03-07T09:44:55.333Z,49.85
2023-03-07T09:47:40.438Z,49.47
2023-03-07T09:50:13.912Z,47.31
2023-03-07T09:52:41.907Z,47.99
2023-03-07T09:55:28.628Z,48.38
2023-03-07T09:58:00.943Z,48.32
2023-03-07T10:00:33.410Z,49.78
2023-03-07T10:03:30.136Z,48.74
2023-03-07T10:08:34.370Z,49.72
2023-03-07T10:11:23.254Z,48.66
2023-03-07T10:14:13.150Z,48.30
2023-03-07T10:17:13.698Z,48.47
2023-03-07T10:20:08.918Z,48.25
2023-03-07T10:22:59.462Z,48.28
2023-03-07T10:25:47.083Z,47.88
2023-03-07T10:28:24.258Z,47.93
2023-03-07T10:30:54.035Z,48.03
2023-03-07T10:33:21.253Z,48.62
2023-03-07T10:35:54.449Z,49.70
2023-03-07T10:38:48.125Z,49.53
2023-03-07T10:41:17.473Z,49.40
2023-03-07T10:43:45.789Z,49.74
2023-03-07T10:48:54.787Z,49.10
2023-03-07T10:51:30.089Z,49.36
2023-03-07T10:53:57.711Z,48.85
2023-03-07T10:56:24.439Z,49.11
2023-03-07T11:01:54.929Z,49.44
2023-03-07T11:04:23.475Z,49.20
2023-03-07T11:06:53.982Z,49.45
2023-03-07T11:09:31.885Z,49.73
2023-03-07T11:12:06.145Z,49.26
2023-03-07T11:14:49.368Z,48.97
2023-03-07T11:17:22.199Z,49.73
2023-03-07T11:19:53.275Z,50.04
2023-03-07T11:22:21.357Z,49.35
2023-03-07T11:24:58.843Z,49.38
2023-03-07T11:27:47.819Z,48.95
2023-03-07T11:30:20.547Z,48.71
2023-03-07T11:32:53.689Z,48.34
2023-03-07T11:35:31.101Z,49.25
2023-03-07T11:38:14.078Z,49.06
2023-03-07T11:40:51.426Z,49.01
2023-03-07T11:43:23.342Z,50.46
2023-03-07T11:46:00.897Z,49.51
2023-03-07T11:48:52.439Z,49.02
2023-03-07T11:51:35.549Z,49.61
2023-03-07T11:54:29.555Z,49.71
2023-03-07T11:57:03.660Z,49.25
2023-03-07T11:59:44.533Z,48.68
2023-03-07T12:02:34.104Z,48.66
2023-03-07T12:05:11.365Z,48.95
2023-03-07T12:08:07.830Z,48.99
2023-03-07T12:10:49.268Z,48.69
2023-03-07T12:13:31.875Z,48.92
2023-03-07T12:16:27.546Z,48.90
2023-03-07T12:18:59.894Z,48.87
2023-03-07T12:21:49.456Z,48.63
2023-03-07T12:24:23.479Z,48.00
2023-03-07T12:29:54.690Z,48.29
2023-03-07T12:32:25.829Z,48.23
2023-03-07T12:38:05.548Z,47.26
2023-03-07T12:40:53.321Z,46.53
2023-03-07T12:43:45.878Z,46.55
2023-03-07T12:46:23.381Z,45.91
2023-03-07T12:49:21.856Z,45.84
2023-03-07T12:51:58.198Z,45.94
2023-03-07T12:54:39.242Z,47.28
2023-03-07T12:57:16.315Z,45.24
2023-03-07T12:59:44.264Z,45.50
2023-03-07T13:02:20.336Z,45.56
2023-03-07T13:04:46.913Z,45.42
2023-03-07T13:07:18.796Z,45.10
2023-03-07T13:12:23.993Z,45.69
2023-03-07T13:17:30.291Z,45.55
2023-03-07T13:19:58.990Z,45.40
2023-03-07T13:25:27.197Z,45.08
2023-03-07T13:27:56.689Z,45.91
2023-03-07T13:30:27.175Z,45.57
2023-03-07T13:32:56.453Z,45.94
2023-03-07T13:35:29.242Z,45.96
2023-03-07T13:38:22.103Z,45.24
2023-03-07T13:40:54.668Z,45.90
2023-03-07T13:43:25.572Z,46.37
2023-03-07T13:45:56.492Z,45.39
2023-03-07T13:48:29.070Z,45.38
2023-03-07T13:50:55.620Z,45.84
2023-03-07T13:59:20.684Z,45.90
2023-03-07T14:02:03.343Z,45.76
2023-03-07T14:04:41.077Z,46.00
2023-03-07T14:07:17.684Z,45.91
2023-03-07T14:09:48.193Z,45.90
2023-03-07T14:12:30.246Z,45.95
2023-03-07T14:15:30.732Z,46.07
2023-03-07T14:18:27.816Z,45.94
2023-03-07T14:20:59.722Z,46.15
2023-03-07T14:23:48.038Z,46.13
2023-03-07T14:29:00.252Z,46.39
2023-03-07T14:31:30.542Z,46.85
2023-03-07T14:33:58.114Z,46.54
2023-03-07T14:36:32.524Z,46.43
2023-03-07T14:39:04.372Z,46.31
2023-03-07T14:41:39.578Z,46.89
2023-03-07T14:44:35.002Z,47.05
2023-03-07T14:47:35.391Z,46.59
2023-03-07T14:50:26.089Z,46.63
2023-03-07T14:53:02.488Z,45.95
2023-03-07T14:55:36.244Z,45.74
2023-03-07T14:58:03.456Z,46.38
2023-03-07T15:00:30.640Z,46.09
2023-03-07T15:03:01.836Z,46.43
2023-03-07T15:05:31.926Z,47.29
2023-03-07T15:10:34.171Z,46.29
2023-03-07T15:13:03.090Z,46.65
2023-03-07T15:15:48.317Z,46.48
2023-03-07T15:18:35.052Z,46.82
2023-03-07T15:21:04.223Z,46.35
2023-03-07T15:23:31.471Z,45.88
2023-03-07T15:26:07.030Z,46.10
2023-03-07T15:28:40.485Z,46.00
2023-03-07T15:31:08.860Z,46.42
2023-03-07T15:33:35.969Z,45.96
2023-03-07T15:36:11.301Z,46.11
2023-03-07T15:38:52.278Z,45.54
2023-03-07T15:41:31.698Z,46.58
2023-03-07T15:44:04.735Z,46.91
2023-03-07T15:46:33.052Z,46.39
2023-03-07T15:48:59.750Z,47.05
2023-03-07T15:51:35.366Z,47.19
2023-03-07T15:54:29.404Z,46.92
2023-03-07T15:56:59.576Z,47.08
2023-03-07T16:02:32.577Z,46.84
2023-03-07T16:05:25.374Z,47.11
2023-03-07T16:07:56.521Z,46.74
2023-03-07T16:10:28.249Z,46.93
2023-03-07T16:12:55.235Z,47.31
2023-03-07T16:15:23.885Z,47.34
2023-03-07T16:17:55.126Z,47.37
2023-03-07T16:20:26.864Z,47.96
2023-03-07T16:22:53.748Z,48.22
2023-03-07T16:25:21.162Z,48.30
2023-03-07T16:27:54.619Z,48.14
2023-03-07T16:30:23.833Z,48.66
2023-03-07T16:32:50.782Z,49.80
2023-03-07T16:35:24.237Z,49.69
2023-03-07T16:37:51.746Z,48.94
2023-03-07T16:40:20.346Z,48.99
2023-03-07T16:42:48.677Z,49.37
2023-03-07T16:45:33.334Z,49.26
2023-03-07T16:48:02.702Z,49.41
2023-03-07T16:50:32.062Z,50.04
2023-03-07T16:52:58.678Z,49.39
2023-03-07T16:55:25.811Z,49.68
2023-03-07T16:57:57.542Z,49.29
2023-03-07T17:00:26.937Z,49.74
2023-03-07T17:02:55.314Z,49.71
2023-03-07T17:05:25.678Z,50.61
2023-03-07T17:07:54.122Z,50.35
2023-03-07T17:10:21.394Z,50.40
2023-03-07T17:12:50.249Z,50.22
2023-03-07T17:15:21.874Z,50.37
2023-03-07T17:17:48.707Z,50.42
2023-03-07T17:20:18.205Z,52.31
2023-03-07T17:22:44.959Z,50.95
2023-03-07T17:25:12.530Z,50.67
2023-03-07T17:27:43.305Z,51.33
2023-03-07T17:30:17.739Z,51.67
2023-03-07T17:32:44.403Z,51.96
2023-03-07T17:35:11.787Z,52.18
2023-03-07T17:37:41.130Z,52.69
2023-03-07T17:42:51.177Z,52.49
2023-03-07T17:45:18.566Z,52.92
2023-03-07T17:47:45.220Z,51.39
2023-03-07T17:50:12.528Z,52.41
2023-03-07T17:52:39.224Z,51.32
2023-03-07T17:55:10.020Z,51.35
2023-03-07T17:57:36.614Z,51.67
2023-03-07T18:00:07.075Z,51.38
2023-03-07T18:02:35.248Z,51.85
2023-03-07T18:05:01.872Z,52.42
2023-03-07T18:07:28.639Z,52.07
2023-03-07T18:10:07.286Z,51.58
2023-03-07T18:15:16.098Z,52.29
2023-03-07T18:17:48.321Z,51.40
2023-03-07T18:20:21.758Z,51.46
2023-03-07T18:22:48.982Z,51.75
2023-03-07T18:25:17.213Z,51.49
2023-03-07T18:27:44.838Z,51.59
2023-03-07T18:30:12.168Z,51.26
2023-03-07T18:32:39.070Z,51.43
2023-03-07T18:35:06.694Z,51.21
2023-03-07T18:37:33.902Z,51.69
2023-03-07T18:40:00.659Z,50.54
2023-03-07T18:42:27.622Z,50.91
2023-03-07T18:44:54.660Z,51.12
2023-03-07T18:47:21.321Z,51.25
2023-03-07T18:49:53.758Z,50.62
2023-03-07T18:52:20.335Z,51.01
2023-03-07T18:57:19.646Z,50.79
2023-03-07T18:59:46.219Z,50.81
2023-03-07T19:02:12.847Z,51.14
2023-03-07T19:04:39.479Z,50.34
2023-03-07T19:07:06.123Z,50.38
2023-03-07T19:09:32.751Z,50.11
2023-03-07T19:11:59.387Z,50.68
2023-03-07T19:16:59.654Z,50.40
2023-03-07T19:19:26.247Z,50.57
2023-03-07T19:21:53.057Z,50.49
2023-03-07T19:24:19.725Z,50.45
2023-03-07T19:26:46.574Z,50.88
2023-03-07T19:29:14.108Z,50.76
2023-03-07T19:31:44.031Z,50.95
2023-03-07T19:34:10.743Z,50.87
2023-03-07T19:36:37.604Z,51.12
2023-03-07T19:39:04.951Z,50.50
2023-03-07T19:44:06.562Z,51.17
2023-03-07T19:46:33.157Z,50.81
2023-03-07T19:48:59.731Z,51.13
2023-03-07T19:51:26.599Z,51.51
2023-03-07T19:53:57.204Z,50.65
2023-03-07T19:56:29.432Z,50.49
2023-03-07T19:58:58.125Z,50.35
2023-03-07T20:01:25.105Z,50.92
2023-03-07T20:03:52.015Z,50.99
2023-03-07T20:06:21.595Z,50.74
2023-03-07T20:08:49.118Z,50.35
2023-03-07T20:11:21.853Z,50.65
2023-03-07T20:13:49.235Z,50.60
2023-03-07T20:16:18.394Z,50.73
2023-03-07T20:18:50.451Z,50.75
2023-03-07T20:21:17.733Z,50.88
2023-03-07T20:23:46.377Z,50.88
2023-03-07T20:26:19.077Z,50.57
2023-03-07T20:28:46.253Z,50.79
2023-03-07T20:31:13.358Z,50.25
2023-03-07T20:33:45.562Z,50.35
2023-03-07T20:36:22.589Z,50.57
2023-03-07T20:39:00.287Z,50.60
2023-03-07T20:41:29.596Z,50.33
2023-03-07T20:44:06.186Z,50.19
2023-03-07T20:46:33.994Z,50.32
2023-03-07T20:49:02.333Z,50.69
2023-03-07T20:51:31.577Z,50.41
2023-03-07T20:54:00.479Z,49.83
2023-03-07T20:56:29.614Z,49.96
2023-03-07T20:58:57.664Z,49.93
2023-03-07T21:01:26.028Z,50.38
2023-03-07T21:03:53.923Z,49.92
2023-03-07T21:06:20.844Z,50.48
2023-03-07T21:08:50.501Z,50.41
2023-03-07T21:11:20.108Z,49.96
2023-03-07T21:13:49.409Z,49.46
2023-03-07T21:18:49.248Z,48.97
2023-03-07T21:21:18.824Z,49.22
2023-03-07T21:23:45.925Z,49.22
2023-03-07T21:26:21.556Z,48.99
2023-03-07T21:28:50.616Z,48.82
2023-03-07T21:31:23.302Z,49.28
2023-03-07T21:33:58.204Z,48.97
2023-03-07T21:36:27.294Z,48.98
2023-03-07T21:38:54.519Z,48.64
2023-03-07T21:41:27.591Z,49.21
2023-03-07T21:43:55.668Z,49.17
2023-03-07T21:46:22.784Z,49.23
2023-03-07T21:48:49.507Z,49.38
2023-03-07T21:51:16.811Z,49.03
2023-03-07T21:53:43.409Z,49.35
2023-03-07T21:58:47.056Z,49.51
2023-03-07T22:01:20.753Z,49.07
2023-03-07T22:03:47.577Z,48.97
2023-03-07T22:06:16.346Z,49.09
2023-03-07T22:08:43.091Z,48.82
2023-03-07T22:11:12.388Z,48.63
2023-03-07T22:13:40.826Z,48.57
2023-03-07T22:16:13.268Z,48.58
2023-03-07T22:18:40.032Z,48.92
2023-03-07T22:21:09.118Z,48.83
2023-03-07T22:23:36.441Z,48.31
2023-03-07T22:26:07.817Z,48.60
2023-03-07T22:28:34.734Z,48.60
2023-03-07T22:31:09.582Z,48.61
2023-03-07T22:33:36.314Z,48.44
2023-03-07T22:38:44.876Z,48.35
2023-03-07T22:41:17.035Z,48.51
2023-03-07T22:43:43.956Z,48.44
2023-03-07T22:46:10.985Z,48.81
2023-03-07T22:48:38.452Z,48.63
2023-03-07T22:51:05.652Z,48.96
2023-03-07T22:53:33.651Z,49.38
2023-03-07T22:56:00.905Z,49.05
2023-03-07T22:58:28.759Z,49.12
2023-03-07T23:00:55.830Z,49.12
2023-03-07T23:03:23.556Z,49.30
2023-03-07T23:05:50.736Z,49.48
2023-03-07T23:11:10.324Z,49.81
2023-03-07T23:13:37.248Z,49.89
2023-03-07T23:16:09.906Z,50.05
2023-03-07T23:21:14.910Z,49.94
2023-03-07T23:26:20.160Z,50.31
2023-03-07T23:28:47.427Z,50.17
2023-03-07T23:31:23.105Z,50.56
2023-03-07T23:36:29.727Z,50.26
2023-03-07T23:38:58.164Z,50.72
2023-03-07T23:41:25.554Z,50.77
2023-03-07T23:43:54.099Z,51.22
2023-03-07T23:46:21.403Z,50.82
2023-03-07T23:48:48.020Z,50.92
2023-03-07T23:51:15.058Z,51.04
2023-03-07T23:53:41.701Z,51.20
2023-03-07T23:56:09.957Z,51.22
2023-03-07T23:58:36.986Z,51.57
